Cambiasca, Brazil
Current Conditions -  °F | °C
As of 1:00 PM on Wednesday 22 Oct 2014 (Local Time) from SBCP Reporting Station
Overcast Overcast  
Wind Chill: 77°   Ceiling: 10000
Heat Index: 79°   Visibility: 6mi
Dew Point: 61°   Wind: 7mph
Humidity: 57%   Direction: 170°S
Pressure: 30.18"   Gusts: NA
Location:  21.71°S, 41.92°W
Report Text: SBCP 221500Z 17006KT 9999 SCT025 OVC100 25/16 Q1022
Loading
Personal Weather Stations






























Interactive Weather Map
Tropical Storm Tracking
New forecast layout! Learn more

10-Day Weather Forecast

Advertisements
Track Severe Weather on mobile